LDDU/DBV METAR and TAF weather

Enter ICAO airport designator
Station Type Date Time Source
LDDU METAR 2021/09/16 21:00 UTC NOAA

LDDU 162100Z 10008KT CAVOK 22/18 Q1017 NOSIG


Station Type Date Time Source
LDDU Decoded METAR 2021/09/16 21:00 UTC NOAA

Dubrovnik / Cilipi, Croatia (LDDU) 42-34N 018-16E 165M
Sep 16, 2021 - 05:00 PM EDT / 2021.09.16 2100 UTC
Wind: from the E (100 degrees) at 9 MPH (8 KT):0
Visibility: greater than 7 mile(s):0
Temperature: 71 F (22 C)
Dew Point: 64 F (18 C)
Relative Humidity: 78%
Pressure (altimeter): 30.03 in. Hg (1017 hPa)
ob: LDDU 162100Z 10008KT CAVOK 22/18 Q1017 NOSIG
cycle: 21

Station Type Date Time Source
LDDU TAF 2021/09/16 18:27 UTC NOAA

TAF TAF LDDU 161725Z 1618/1718 VRB02KT CAVOK TX26/1712Z TN21/1704Z
BECMG 1622/1700 12012KT PROB30
TEMPO 1708/1715 TSRA FEW040CB SCT060
TEMPO 1715/1718 4000 TSRA SCT030CB BKN060

Example: see airport list